Terminal Aerodrome Forecast
Issued by NWS

Home | Current Version | Previous Version | Text Only | Print | Product List | Glossary On
Versions: 1 2 3 4 5 6 7 8 9 10 11 12 13 14 15 16 17 18 19 20
000
FTUS41 KAKQ 060530
TAFPHF
TAF
KPHF 060530Z 0606/0706 15004KT P6SM -RA SCT020 BKN080
      TEMPO 0606/0609 3SM TSRA BR BKN010CB
     FM060900 20004KT 5SM BR BKN100
     FM061400 20009KT P6SM SCT025 BKN050
     FM070000 19006KT P6SM SCT100=

USA.gov is the U.S. government's official web portal to all federal, state and local government web resources and services.